createdAt,value
2018-05-02T00:01:21.340Z,2.40
2018-05-02T00:03:49.566Z,2.40
2018-05-02T00:06:17.014Z,2.30
2018-05-02T00:08:44.471Z,2.40
2018-05-02T00:11:11.919Z,2.40
2018-05-02T00:13:40.062Z,2.30
2018-05-02T00:16:08.288Z,2.50
2018-05-02T00:18:35.734Z,2.50
2018-05-02T00:21:03.177Z,2.50
2018-05-02T00:23:30.628Z,2.50
2018-05-02T00:25:58.070Z,2.20
2018-05-02T00:28:25.534Z,2.10
2018-05-02T00:30:52.970Z,2.20
2018-05-02T00:33:21.191Z,2.00
2018-05-02T00:35:48.636Z,2.00
2018-05-02T00:38:16.090Z,1.80
2018-05-02T00:40:43.527Z,1.80
2018-05-02T00:43:11.746Z,2.00
2018-05-02T00:45:39.198Z,2.00
2018-05-02T00:48:06.651Z,2.10
2018-05-02T00:50:34.094Z,2.10
2018-05-02T00:53:02.249Z,2.10
2018-05-02T00:55:29.711Z,2.00
2018-05-02T00:57:57.153Z,1.90
2018-05-02T01:00:24.606Z,1.90
2018-05-02T01:02:52.810Z,1.80
2018-05-02T01:05:20.266Z,1.80
2018-05-02T01:07:47.714Z,1.70
2018-05-02T01:10:15.162Z,1.60
2018-05-02T01:12:42.612Z,1.60
2018-05-02T01:15:10.822Z,1.50
2018-05-02T01:17:38.276Z,1.50
2018-05-02T01:20:05.710Z,1.50
2018-05-02T01:22:33.173Z,1.40
2018-05-02T01:25:00.613Z,1.30
2018-05-02T01:27:28.078Z,1.30
2018-05-02T01:29:55.559Z,1.30
2018-05-02T01:32:22.986Z,1.50
2018-05-02T01:34:51.203Z,1.90
2018-05-02T01:37:18.642Z,1.90
2018-05-02T01:39:46.247Z,2.00
2018-05-02T01:42:13.694Z,2.00
2018-05-02T01:44:41.154Z,2.10
2018-05-02T01:47:08.596Z,2.20
2018-05-02T01:49:36.062Z,2.30
2018-05-02T01:52:03.500Z,2.30
2018-05-02T01:54:30.941Z,2.40
2018-05-02T01:56:58.381Z,2.40
2018-05-02T01:59:25.834Z,2.50
2018-05-02T02:01:54.030Z,2.50
2018-05-02T02:04:22.210Z,2.40
2018-05-02T02:06:49.662Z,2.50
2018-05-02T02:09:17.909Z,2.50
2018-05-02T02:11:46.123Z,2.20
2018-05-02T02:14:13.567Z,2.20
2018-05-02T02:16:41.012Z,2.00
2018-05-02T02:19:08.454Z,1.80
2018-05-02T02:21:36.662Z,1.60
2018-05-02T02:24:04.112Z,1.60
2018-05-02T02:26:31.546Z,1.50
2018-05-02T02:28:59.000Z,1.50
2018-05-02T02:31:27.223Z,1.40
2018-05-02T02:33:54.795Z,1.30
2018-05-02T02:36:22.117Z,1.30
2018-05-02T02:38:49.562Z,1.20
2018-05-02T02:41:17.006Z,1.20
2018-05-02T02:43:44.457Z,1.10
2018-05-02T02:46:12.658Z,1.30
2018-05-02T02:48:40.120Z,1.20
2018-05-02T02:51:07.554Z,1.40
2018-05-02T02:53:34.995Z,1.40
2018-05-02T02:56:03.238Z,1.30
2018-05-02T02:58:30.690Z,1.30
2018-05-02T03:00:58.163Z,1.30
2018-05-02T03:03:25.603Z,1.20
2018-05-02T03:05:53.054Z,1.20
2018-05-02T03:08:20.510Z,1.30
2018-05-02T03:10:47.955Z,1.40
2018-05-02T03:13:15.403Z,1.50
2018-05-02T03:15:42.850Z,1.50
2018-05-02T03:18:10.319Z,1.40
2018-05-02T03:20:37.776Z,1.40
2018-05-02T03:23:05.230Z,1.30
2018-05-02T03:25:32.667Z,1.20
2018-05-02T03:28:00.114Z,1.20
2018-05-02T03:30:28.317Z,1.40
2018-05-02T03:32:56.204Z,1.40
2018-05-02T03:35:23.640Z,1.50
2018-05-02T03:37:51.103Z,1.60
2018-05-02T03:40:18.554Z,1.60
2018-05-02T03:42:46.002Z,1.60
2018-05-02T03:45:13.441Z,1.60
2018-05-02T03:47:41.646Z,1.30
2018-05-02T03:50:09.100Z,1.30
2018-05-02T03:52:36.546Z,1.30
2018-05-02T03:55:03.994Z,1.30
2018-05-02T03:57:31.435Z,1.40
2018-05-02T04:00:11.363Z,1.70
2018-05-02T04:02:50.594Z,1.60
2018-05-02T04:05:29.962Z,1.70
2018-05-02T04:07:58.165Z,1.40
2018-05-02T04:10:25.618Z,1.40
2018-05-02T04:12:53.051Z,1.40
2018-05-02T04:15:21.261Z,1.60
2018-05-02T04:17:48.706Z,1.60
2018-05-02T04:20:16.157Z,1.70
2018-05-02T04:22:43.617Z,1.80
2018-05-02T04:25:11.359Z,1.80
2018-05-02T04:27:39.569Z,2.00
2018-05-02T04:30:07.009Z,1.90
2018-05-02T04:32:34.454Z,2.00
2018-05-02T04:35:01.899Z,2.10
2018-05-02T04:37:30.126Z,2.10
2018-05-02T04:39:57.593Z,2.10
2018-05-02T04:42:25.043Z,2.10
2018-05-02T04:44:52.485Z,2.30
2018-05-02T04:47:19.936Z,2.30
2018-05-02T04:49:47.384Z,2.40
2018-05-02T04:52:14.834Z,2.50
2018-05-02T04:54:42.279Z,2.60
2018-05-02T04:57:10.490Z,2.80
2018-05-02T04:59:37.948Z,2.80
2018-05-02T05:02:05.374Z,2.80
2018-05-02T05:04:32.846Z,3.10
2018-05-02T05:07:00.271Z,3.40
2018-05-02T05:09:28.490Z,3.60
2018-05-02T05:11:55.938Z,3.60
2018-05-02T05:14:23.391Z,3.70
2018-05-02T05:16:50.838Z,3.80
2018-05-02T05:19:18.306Z,3.90
2018-05-02T05:21:45.738Z,4.20
2018-05-02T05:24:13.942Z,4.50
2018-05-02T05:26:41.397Z,4.50
2018-05-02T05:29:08.847Z,4.60
2018-05-02T05:31:36.960Z,4.60
2018-05-02T05:34:04.430Z,4.50
2018-05-02T05:36:31.904Z,4.50
2018-05-02T05:39:00.122Z,4.80
2018-05-02T05:41:27.574Z,4.80
2018-05-02T05:43:55.844Z,4.90
2018-05-02T05:46:23.282Z,5.20
2018-05-02T05:48:50.735Z,5.50
2018-05-02T05:51:18.941Z,6.00
2018-05-02T05:53:46.374Z,6.00
2018-05-02T05:56:13.835Z,6.20
2018-05-02T05:58:41.298Z,6.30
2018-05-02T06:01:08.751Z,6.50
2018-05-02T06:03:36.199Z,6.70
2018-05-02T06:06:03.650Z,6.80
2018-05-02T06:08:31.850Z,7.50
2018-05-02T06:10:59.304Z,7.40
2018-05-02T06:13:26.743Z,7.80
2018-05-02T06:15:54.510Z,8.20
2018-05-02T06:18:21.947Z,8.80
2018-05-02T06:20:50.180Z,9.60
2018-05-02T06:23:17.627Z,9.60
2018-05-02T06:25:45.071Z,10.30
2018-05-02T06:28:12.538Z,11.10
2018-05-02T06:30:39.987Z,11.70
2018-05-02T06:33:07.442Z,12.50
2018-05-02T06:35:34.882Z,13.20
2018-05-02T06:38:02.388Z,13.50
2018-05-02T06:40:29.829Z,13.80
2018-05-02T06:42:57.274Z,14.10
2018-05-02T06:45:24.739Z,14.40
2018-05-02T06:47:52.183Z,14.80
2018-05-02T06:50:20.260Z,14.80
2018-05-02T06:52:47.636Z,14.80
2018-05-02T06:55:15.090Z,14.70
2018-05-02T06:57:42.543Z,14.70
2018-05-02T07:00:10.338Z,14.80
2018-05-02T07:02:37.786Z,15.50
2018-05-02T07:05:05.243Z,16.50
2018-05-02T07:07:32.711Z,17.30
2018-05-02T07:10:00.148Z,17.70
2018-05-02T07:12:27.598Z,17.80
2018-05-02T07:14:55.056Z,17.60
2018-05-02T07:17:22.499Z,17.60
2018-05-02T07:19:49.944Z,17.10
2018-05-02T07:22:17.387Z,16.90
2018-05-02T07:24:44.858Z,16.90
2018-05-02T07:27:12.305Z,16.80
2018-05-02T07:29:39.779Z,16.80
2018-05-02T07:32:07.214Z,16.70
2018-05-02T07:34:34.665Z,15.80
2018-05-02T07:37:02.119Z,14.60
2018-05-02T07:39:31.118Z,13.90
2018-05-02T07:41:58.570Z,13.90
2018-05-02T07:44:26.782Z,14.10
2018-05-02T07:46:54.238Z,14.10
2018-05-02T07:49:21.682Z,14.60
2018-05-02T07:51:49.141Z,14.60
2018-05-02T07:54:16.596Z,14.80
2018-05-02T07:56:44.093Z,14.60
2018-05-02T07:59:11.510Z,14.80
2018-05-02T08:01:38.959Z,14.60
2018-05-02T08:04:06.423Z,14.80
2018-05-02T08:06:33.962Z,15.00
2018-05-02T08:09:01.422Z,14.80
2018-05-02T08:11:28.879Z,14.50
2018-05-02T08:13:56.743Z,14.80
2018-05-02T08:16:24.229Z,15.80
2018-05-02T08:18:52.411Z,15.40
2018-05-02T08:21:19.857Z,15.40
2018-05-02T08:23:47.324Z,15.50
2018-05-02T08:26:14.776Z,15.70
2018-05-02T08:28:42.220Z,15.50
2018-05-02T08:31:09.657Z,15.30
2018-05-02T08:33:37.613Z,15.50
2018-05-02T08:36:05.047Z,15.70
2018-05-02T08:38:32.504Z,15.80
2018-05-02T08:40:59.946Z,15.60
2018-05-02T08:43:27.405Z,15.60
2018-05-02T08:45:54.849Z,15.60
2018-05-02T08:48:23.297Z,15.40
2018-05-02T08:50:50.726Z,15.20
2018-05-02T08:53:18.953Z,15.60
2018-05-02T08:55:46.403Z,15.50
2018-05-02T08:58:13.848Z,16.00
2018-05-02T09:00:41.301Z,16.50
2018-05-02T09:03:08.751Z,16.80
2018-05-02T09:05:36.215Z,16.90
2018-05-02T09:08:04.522Z,17.40
2018-05-02T09:10:32.009Z,17.90
2018-05-02T09:12:59.470Z,17.50
2018-05-02T09:15:26.934Z,17.30
2018-05-02T09:17:55.152Z,18.60
2018-05-02T09:20:22.717Z,18.60
2018-05-02T09:22:50.151Z,19.30
2018-05-02T09:25:17.594Z,18.90
2018-05-02T09:27:45.805Z,19.70
2018-05-02T09:30:14.123Z,19.70
2018-05-02T09:32:42.011Z,20.00
2018-05-02T09:35:10.214Z,20.00
2018-05-02T09:37:37.674Z,19.90
2018-05-02T09:40:05.115Z,19.90
2018-05-02T09:42:32.581Z,20.20
2018-05-02T09:45:00.046Z,19.80
2018-05-02T09:47:27.503Z,19.00
2018-05-02T09:49:54.955Z,18.00
2018-05-02T09:52:22.394Z,18.00
2018-05-02T09:54:49.848Z,18.30
2018-05-02T09:57:17.310Z,18.00
2018-05-02T09:59:44.754Z,17.50
2018-05-02T10:02:12.984Z,18.50
2018-05-02T10:04:40.462Z,18.50
2018-05-02T10:07:08.818Z,19.60
2018-05-02T10:09:36.278Z,20.10
2018-05-02T10:12:04.658Z,19.20
2018-05-02T10:14:32.120Z,18.60
2018-05-02T10:16:59.800Z,18.60
2018-05-02T10:19:27.258Z,19.00
2018-05-02T10:21:54.691Z,19.70
2018-05-02T10:24:22.135Z,19.60
2018-05-02T10:26:49.591Z,19.30
2018-05-02T10:29:17.571Z,18.60
2018-05-02T10:31:45.022Z,18.80
2018-05-02T10:34:12.479Z,18.80
2018-05-02T10:36:40.689Z,19.30
2018-05-02T10:39:09.022Z,19.40
2018-05-02T10:41:36.466Z,19.40
2018-05-02T10:44:03.915Z,19.40
2018-05-02T10:46:31.366Z,19.50
2018-05-02T10:48:58.814Z,19.60
2018-05-02T10:51:26.347Z,20.10
2018-05-02T10:53:53.861Z,20.40
2018-05-02T10:56:21.386Z,21.10
2018-05-02T10:58:49.665Z,23.10
2018-05-02T11:01:17.177Z,23.00
2018-05-02T11:03:44.707Z,23.30
2018-05-02T11:06:12.225Z,23.30
2018-05-02T11:08:40.529Z,21.70
2018-05-02T11:11:08.048Z,21.70
2018-05-02T11:13:35.580Z,21.00
2018-05-02T11:16:04.219Z,20.60
2018-05-02T11:18:32.502Z,22.40
2018-05-02T11:21:00.018Z,22.40
2018-05-02T11:23:27.527Z,23.40
2018-05-02T11:25:55.046Z,23.90
2018-05-02T11:28:22.676Z,23.50
2018-05-02T11:30:50.126Z,22.80
2018-05-02T11:33:17.918Z,22.60
2018-05-02T11:35:45.440Z,22.90
2018-05-02T11:38:12.953Z,22.90
2018-05-02T11:40:41.273Z,22.20
2018-05-02T11:43:08.793Z,22.10
2018-05-02T11:45:37.069Z,23.10
2018-05-02T11:48:05.367Z,23.80
2018-05-02T11:50:32.881Z,23.80
2018-05-02T11:53:00.409Z,24.00
2018-05-02T11:55:27.922Z,23.70
2018-05-02T11:57:56.251Z,23.00
2018-05-02T12:00:23.741Z,23.00
2018-05-02T12:02:51.260Z,23.00
2018-05-02T12:05:18.777Z,23.50
2018-05-02T12:07:47.053Z,23.50
2018-05-02T12:10:15.337Z,22.40
2018-05-02T12:12:43.625Z,21.80
2018-05-02T12:15:11.150Z,21.80
2018-05-02T12:17:38.666Z,21.40
2018-05-02T12:20:06.186Z,21.50
2018-05-02T12:22:34.466Z,22.30
2018-05-02T12:25:03.628Z,21.30
2018-05-02T12:27:31.145Z,21.30
2018-05-02T12:29:58.677Z,20.70
2018-05-02T12:32:26.949Z,20.80
2018-05-02T12:34:55.234Z,21.40
2018-05-02T12:37:22.757Z,21.40
2018-05-02T12:39:50.289Z,22.20
2018-05-02T12:42:17.810Z,22.10
2018-05-02T12:44:45.329Z,22.50
2018-05-02T12:47:12.862Z,21.50
2018-05-02T12:49:40.376Z,20.90
2018-05-02T12:52:08.657Z,22.10
2018-05-02T12:54:36.945Z,22.50
2018-05-02T12:57:04.865Z,22.50
2018-05-02T12:59:32.381Z,22.60
2018-05-02T13:01:59.889Z,23.20
2018-05-02T13:04:27.413Z,23.40
2018-05-02T13:06:54.934Z,23.10
2018-05-02T13:09:23.215Z,24.40
2018-05-02T13:11:51.490Z,24.90
2018-05-02T13:14:19.785Z,24.80
2018-05-02T13:16:47.289Z,24.80
2018-05-02T13:19:14.809Z,24.60
2018-05-02T13:21:42.332Z,24.90
2018-05-02T13:24:10.613Z,22.60
2018-05-02T13:26:38.894Z,22.70
2018-05-02T13:29:07.179Z,23.00
2018-05-02T13:31:34.705Z,23.00
2018-05-02T13:34:02.238Z,23.40
2018-05-02T13:36:29.776Z,23.30
2018-05-02T13:38:57.296Z,23.20
2018-05-02T13:41:25.570Z,21.40
2018-05-02T13:43:53.871Z,21.90
2018-05-02T13:46:21.385Z,21.80
2018-05-02T13:48:48.890Z,22.20
2018-05-02T13:51:16.424Z,22.40
2018-05-02T13:53:44.716Z,22.10
2018-05-02T13:56:12.241Z,22.10
2018-05-02T13:58:39.765Z,22.60
2018-05-02T14:01:07.285Z,23.20
2018-05-02T14:03:35.625Z,24.10
2018-05-02T14:06:03.844Z,24.10
2018-05-02T14:08:31.297Z,24.00
2018-05-02T14:10:59.516Z,21.30
2018-05-02T14:13:26.962Z,21.30
2018-05-02T14:15:54.449Z,20.80
2018-05-02T14:18:21.906Z,20.70
2018-05-02T14:20:49.348Z,20.00
2018-05-02T14:23:16.794Z,20.20
2018-05-02T14:25:44.249Z,20.50
2018-05-02T14:28:11.723Z,20.60
2018-05-02T14:30:39.173Z,20.90
2018-05-02T14:33:06.680Z,20.90
2018-05-02T14:35:34.110Z,20.80
2018-05-02T14:38:01.577Z,20.80
2018-05-02T14:40:29.035Z,20.70
2018-05-02T14:42:56.490Z,20.80
2018-05-02T14:45:24.016Z,21.00
2018-05-02T14:47:51.371Z,20.20
2018-05-02T14:50:18.830Z,19.60
2018-05-02T14:52:46.292Z,19.40
2018-05-02T14:55:13.746Z,19.70
2018-05-02T14:57:41.190Z,19.60
2018-05-02T15:00:08.638Z,19.60
2018-05-02T15:02:36.097Z,19.60
2018-05-02T15:05:03.584Z,20.00
2018-05-02T15:07:31.033Z,20.00
2018-05-02T15:09:58.498Z,19.70
2018-05-02T15:12:25.964Z,18.80
2018-05-02T15:14:53.409Z,18.20
2018-05-02T15:17:20.858Z,17.90
2018-05-02T15:19:48.319Z,17.90
2018-05-02T15:22:15.775Z,17.40
2018-05-02T15:24:43.247Z,17.30
2018-05-02T15:27:10.688Z,17.60
2018-05-02T15:29:38.130Z,18.00
2018-05-02T15:32:05.580Z,18.10
2018-05-02T15:34:33.030Z,18.10
2018-05-02T15:37:00.494Z,18.20
2018-05-02T15:39:27.943Z,18.30
2018-05-02T15:41:55.453Z,18.40
2018-05-02T15:44:22.940Z,18.60
2018-05-02T15:46:51.150Z,18.90
2018-05-02T15:49:18.651Z,18.90
2018-05-02T15:51:46.072Z,18.80
2018-05-02T15:54:13.614Z,18.40
2018-05-02T15:56:41.076Z,17.90
2018-05-02T15:59:08.668Z,18.10
2018-05-02T16:01:36.118Z,18.40
2018-05-02T16:04:04.386Z,18.10
2018-05-02T16:06:31.796Z,17.80
2018-05-02T16:08:59.248Z,17.80
2018-05-02T16:11:27.447Z,17.50
2018-05-02T16:13:54.930Z,17.50
2018-05-02T16:16:22.451Z,17.40
2018-05-02T16:18:49.841Z,17.80
2018-05-02T16:21:17.299Z,18.00
2018-05-02T16:23:44.762Z,17.80
2018-05-02T16:26:12.234Z,17.50
2018-05-02T16:28:39.688Z,17.50
2018-05-02T16:31:07.138Z,17.60
2018-05-02T16:33:34.598Z,17.50
2018-05-02T16:36:02.662Z,17.50
2018-05-02T16:38:30.126Z,17.50
2018-05-02T16:40:57.586Z,17.50
2018-05-02T16:43:25.043Z,17.20
2018-05-02T16:45:52.505Z,16.90
2018-05-02T16:48:19.946Z,16.60
2018-05-02T16:50:47.414Z,16.50
2018-05-02T16:53:14.853Z,16.40
2018-05-02T16:55:42.323Z,16.60
2018-05-02T16:58:09.762Z,16.60
2018-05-02T17:00:37.214Z,16.20
2018-05-02T17:03:04.670Z,15.80
2018-05-02T17:05:32.130Z,15.60
2018-05-02T17:07:59.596Z,15.30
2018-05-02T17:10:27.064Z,15.20
2018-05-02T17:12:54.524Z,15.10
2018-05-02T17:15:21.977Z,15.00
2018-05-02T17:17:49.439Z,15.00
2018-05-02T17:20:16.902Z,15.10
2018-05-02T17:22:44.367Z,15.10
2018-05-02T17:25:11.823Z,15.30
2018-05-02T17:27:39.302Z,15.30
2018-05-02T17:30:07.576Z,15.20
2018-05-02T17:32:34.979Z,15.10
2018-05-02T17:35:02.443Z,15.00
2018-05-02T17:37:29.946Z,15.00
2018-05-02T17:39:58.188Z,15.10
2018-05-02T17:42:25.625Z,15.10
2018-05-02T17:44:53.088Z,15.10
2018-05-02T17:47:20.552Z,15.10
2018-05-02T17:49:48.430Z,15.10
2018-05-02T17:52:15.870Z,14.90
2018-05-02T17:54:43.336Z,14.70
2018-05-02T17:57:10.809Z,14.60
2018-05-02T17:59:38.256Z,14.50
2018-05-02T18:02:05.724Z,14.40
2018-05-02T18:04:33.174Z,14.30
2018-05-02T18:07:00.636Z,14.20
2018-05-02T18:09:28.645Z,14.20
2018-05-02T18:11:56.103Z,14.20
2018-05-02T18:14:23.574Z,14.30
2018-05-02T18:16:51.098Z,14.30
2018-05-02T18:19:19.318Z,14.00
2018-05-02T18:21:47.660Z,14.00
2018-05-02T18:24:15.878Z,13.60
2018-05-02T18:26:43.331Z,13.60
2018-05-02T18:29:11.339Z,13.50
2018-05-02T18:31:38.789Z,13.50
2018-05-02T18:34:06.235Z,13.40
2018-05-02T18:36:33.808Z,13.30
2018-05-02T18:39:01.663Z,13.10
2018-05-02T18:41:29.115Z,13.00
2018-05-02T18:43:56.568Z,12.90
2018-05-02T18:46:24.022Z,12.80
2018-05-02T18:48:51.492Z,12.60
2018-05-02T18:51:18.951Z,12.50
2018-05-02T18:53:46.397Z,12.40
2018-05-02T18:56:13.846Z,12.40
2018-05-02T18:58:41.383Z,12.40
2018-05-02T19:01:09.056Z,12.50
2018-05-02T19:03:36.500Z,12.40
2018-05-02T19:06:03.954Z,12.40
2018-05-02T19:08:32.027Z,12.50
2018-05-02T19:10:59.487Z,12.50
2018-05-02T19:13:26.947Z,12.30
2018-05-02T19:15:54.418Z,12.10
2018-05-02T19:18:27.544Z,11.80
2018-05-02T19:20:54.996Z,11.50
2018-05-02T19:23:22.451Z,11.10
2018-05-02T19:25:55.643Z,11.00
2018-05-02T19:28:23.083Z,11.10
2018-05-02T19:30:56.364Z,11.20
2018-05-02T19:33:29.394Z,11.20
2018-05-02T19:35:58.246Z,11.30
2018-05-02T19:38:26.469Z,11.20
2018-05-02T19:41:01.126Z,11.20
2018-05-02T19:43:34.361Z,11.20
2018-05-02T19:46:02.316Z,11.30
2018-05-02T19:48:29.758Z,11.50
2018-05-02T19:51:02.851Z,11.50
2018-05-02T19:53:31.071Z,11.40
2018-05-02T19:55:59.288Z,11.40
2018-05-02T19:58:26.742Z,11.40
2018-05-02T20:01:01.405Z,11.30
2018-05-02T20:03:28.854Z,11.20
2018-05-02T20:05:56.313Z,11.20
2018-05-02T20:08:29.999Z,11.20
2018-05-02T20:11:03.027Z,11.30
2018-05-02T20:13:50.970Z,11.40
2018-05-02T20:16:19.178Z,11.20
2018-05-02T20:18:46.634Z,11.20
2018-05-02T20:21:14.094Z,11.10
2018-05-02T20:23:41.548Z,11.20
2018-05-02T20:26:09.004Z,11.20
2018-05-02T20:28:36.448Z,11.20
2018-05-02T20:31:03.912Z,11.10
2018-05-02T20:33:32.218Z,10.90
2018-05-02T20:35:59.668Z,10.80
2018-05-02T20:38:27.111Z,10.80
2018-05-02T20:40:54.563Z,10.90
2018-05-02T20:43:22.022Z,11.00
2018-05-02T20:45:49.466Z,11.00
2018-05-02T20:48:16.922Z,11.00
2018-05-02T20:50:44.373Z,11.00
2018-05-02T20:53:11.817Z,11.20
2018-05-02T20:55:40.026Z,11.20
2018-05-02T20:58:07.490Z,11.10
2018-05-02T21:00:35.614Z,11.10
2018-05-02T21:03:03.836Z,11.00
2018-05-02T21:05:31.295Z,11.00
2018-05-02T21:07:58.730Z,10.90
2018-05-02T21:10:26.187Z,11.00
2018-05-02T21:12:53.655Z,11.00
2018-05-02T21:15:21.102Z,11.00
2018-05-02T21:17:48.547Z,11.00
2018-05-02T21:20:16.768Z,11.00
2018-05-02T21:22:44.223Z,10.90
2018-05-02T21:25:11.800Z,10.80
2018-05-02T21:27:39.238Z,10.60
2018-05-02T21:30:06.691Z,10.50
2018-05-02T21:32:34.150Z,10.60
2018-05-02T21:35:02.310Z,10.80
2018-05-02T21:37:29.763Z,10.90
2018-05-02T21:39:57.506Z,11.00
2018-05-02T21:42:24.967Z,11.10
2018-05-02T21:44:52.438Z,11.10
2018-05-02T21:47:19.901Z,11.10
2018-05-02T21:49:47.360Z,11.10
2018-05-02T21:52:14.807Z,11.10
2018-05-02T21:54:42.258Z,11.00
2018-05-02T21:57:10.379Z,11.10
2018-05-02T21:59:37.830Z,11.20
2018-05-02T22:02:05.278Z,11.20
2018-05-02T22:04:32.742Z,11.20
2018-05-02T22:07:00.191Z,11.20
2018-05-02T22:09:27.652Z,11.10
2018-05-02T22:11:55.094Z,11.20
2018-05-02T22:14:22.541Z,11.30
2018-05-02T22:16:50.002Z,11.40
2018-05-02T22:19:17.451Z,11.30
2018-05-02T22:21:44.907Z,11.50
2018-05-02T22:24:12.354Z,11.20
2018-05-02T22:26:39.795Z,11.10
2018-05-02T22:29:08.021Z,11.10
2018-05-02T22:31:35.466Z,11.10
2018-05-02T22:34:03.674Z,11.20
2018-05-02T22:36:31.118Z,11.10
2018-05-02T22:38:58.571Z,11.00
2018-05-02T22:41:26.022Z,10.90
2018-05-02T22:43:53.518Z,11.00
2018-05-02T22:46:21.751Z,10.80
2018-05-02T22:48:49.190Z,10.70
2018-05-02T22:51:16.643Z,10.60
2018-05-02T22:53:44.081Z,10.40
2018-05-02T22:56:12.071Z,10.40
2018-05-02T22:58:39.531Z,10.50
2018-05-02T23:01:06.966Z,10.40
2018-05-02T23:03:35.286Z,10.40
2018-05-02T23:06:02.731Z,10.40
2018-05-02T23:08:30.183Z,10.20
2018-05-02T23:10:58.041Z,10.10
2018-05-02T23:13:32.489Z,10.00
2018-05-02T23:15:59.931Z,9.90
2018-05-02T23:18:27.375Z,9.60
2018-05-02T23:20:54.830Z,9.60
2018-05-02T23:23:22.274Z,9.60
2018-05-02T23:25:50.469Z,9.50
2018-05-02T23:28:17.905Z,9.40
2018-05-02T23:30:45.346Z,9.30
2018-05-02T23:33:13.565Z,9.30
2018-05-02T23:35:41.006Z,9.30
2018-05-02T23:38:08.725Z,9.30
2018-05-02T23:40:36.166Z,9.30
2018-05-02T23:43:03.614Z,9.30
2018-05-02T23:45:31.061Z,9.40
2018-05-02T23:47:58.502Z,9.40
2018-05-02T23:50:25.954Z,9.60
2018-05-02T23:52:53.433Z,9.60
2018-05-02T23:55:20.890Z,9.70
2018-05-02T23:57:48.326Z,9.80
